Time;durP1;ratioP1;P1;durP2;ratioP2;P2;SDS_P1;SDS_P2;PMS_P1;PMS_P2;Temp;Humidity;BMP_temperature;BMP_pressure;BME280_temperature;BME280_humidity;BME280_pressure;Samples;Min_cycle;Max_cycle;Signal;HPM_P1;HPM_P2
2022/01/27 00:05:41;;;;;;;41.33;22.00;;;;;;;-1.59;86.93;101069.16;5067906;28;20189;-78
2022/01/27 00:13:01;;;;;;;38.78;19.35;;;;;;;-1.54;87.07;101061.44;5064901;28;20202;-78
2022/01/27 00:15:32;;;;;;;40.90;20.40;;;;;;;-1.54;86.74;101056.28;5053238;28;20209;-78
2022/01/27 00:18:02;;;;;;;38.42;19.35;;;;;;;-1.56;86.63;101054.59;5052569;28;20206;-79
2022/01/27 00:20:27;;;;;;;46.47;19.83;;;;;;;-1.57;86.84;101050.28;5038792;28;20202;-79
2022/01/27 00:22:53;;;;;;;47.73;21.10;;;;;;;-1.54;87.03;101053.72;5050008;28;20212;-79
2022/01/27 00:25:19;;;;;;;44.10;21.27;;;;;;;-1.52;86.76;101055.47;5051067;28;20253;-79
2022/01/27 00:27:46;;;;;;;47.03;25.02;;;;;;;-1.52;86.63;101052.88;5052115;28;20431;-78
2022/01/27 00:30:11;;;;;;;55.08;29.15;;;;;;;-1.50;86.53;101052.91;5054069;28;20508;-79
2022/01/27 00:32:37;;;;;;;56.08;31.30;;;;;;;-1.46;86.95;101052.97;5054798;28;20495;-79
2022/01/27 00:35:05;;;;;;;44.27;22.37;;;;;;;-1.52;87.35;101052.03;5055082;28;20230;-79
2022/01/27 00:37:31;;;;;;;42.72;23.52;;;;;;;-1.54;87.14;101061.44;5054891;28;20208;-79
2022/01/27 00:39:56;;;;;;;39.37;20.90;;;;;;;-1.54;87.40;101058.88;5034568;28;20198;-79
2022/01/27 00:42:23;;;;;;;47.20;21.63;;;;;;;-1.54;87.33;101058.88;5053878;28;20742;-79
2022/01/27 00:44:49;;;;;;;41.60;21.40;;;;;;;-1.56;86.98;101061.44;5051187;28;20240;-78
2022/01/27 00:47:14;;;;;;;50.23;21.83;;;;;;;-1.57;87.25;101055.44;5054460;28;20281;-79
2022/01/27 00:49:41;;;;;;;45.87;19.60;;;;;;;-1.57;87.40;101055.44;5052406;28;20210;-79
2022/01/27 00:52:14;;;;;;;37.38;21.63;;;;;;;-1.56;87.03;101058.88;5033775;28;20210;-79
2022/01/27 00:54:40;;;;;;;40.83;21.58;;;;;;;-1.57;86.88;101055.44;5053815;28;20817;-78
2022/01/27 00:59:55;;;;;;;44.83;22.20;;;;;;;-1.60;86.90;101051.94;5040851;28;20209;-78
2022/01/27 01:02:36;;;;;;;44.85;22.80;;;;;;;-1.59;87.14;101056.28;5054285;28;20213;-79
2022/01/27 01:05:23;;;;;;;40.03;20.70;;;;;;;-1.56;86.75;101054.59;5049982;28;20317;-79
2022/01/27 01:07:52;;;;;;;40.00;24.30;;;;;;;-1.55;86.75;101055.44;5056431;28;20250;-80
2022/01/27 01:15:33;;;;;;;49.70;21.17;;;;;;;-1.54;86.77;101054.56;5049438;28;20209;-80
2022/01/27 01:18:17;;;;;;;36.17;19.13;;;;;;;-1.52;86.67;101052.03;5053667;28;20198;-80
2022/01/27 01:34:27;;;;;;;36.40;19.35;;;;;;;-1.52;86.50;101044.28;5050528;28;20221;-81
2022/01/27 01:37:00;;;;;;;37.72;18.67;;;;;;;-1.52;86.46;101040.00;5055411;28;20274;-80
2022/01/27 01:39:31;;;;;;;49.90;23.08;;;;;;;-1.51;86.57;101038.28;5051763;28;20209;-79
2022/01/27 01:41:58;;;;;;;36.88;19.85;;;;;;;-1.54;86.67;101036.53;5053375;28;20727;-80
2022/01/27 01:44:24;;;;;;;38.00;18.95;;;;;;;-1.56;86.65;101031.38;5053718;28;20221;-80
2022/01/27 01:46:50;;;;;;;41.85;19.77;;;;;;;-1.57;86.51;101032.25;5053402;28;20293;-80
2022/01/27 01:49:15;;;;;;;33.97;19.83;;;;;;;-1.57;86.61;101033.94;5036933;28;20220;-80
2022/01/27 01:51:43;;;;;;;47.23;21.30;;;;;;;-1.59;86.54;101026.22;5056354;28;20205;-79
2022/01/27 01:54:09;;;;;;;38.55;21.65;;;;;;;-1.59;86.74;101020.19;5055078;28;20548;-79
2022/01/27 01:56:36;;;;;;;44.35;20.63;;;;;;;-1.59;86.85;101010.75;5056828;28;20213;-79
2022/01/27 01:59:02;;;;;;;39.80;20.17;;;;;;;-1.59;86.55;101013.34;5057958;28;20520;-80
2022/01/27 02:01:28;;;;;;;47.03;24.50;;;;;;;-1.56;86.58;101003.06;5039416;28;20502;-81
2022/01/27 02:03:53;;;;;;;50.87;22.87;;;;;;;-1.56;86.91;101005.63;5059138;28;20283;-80
2022/01/27 02:06:27;;;;;;;41.33;20.57;;;;;;;-1.55;86.99;101001.31;5054277;28;20372;-80
2022/01/27 02:19:42;;;;;;;36.92;19.73;;;;;;;-1.54;86.64;101012.50;5056239;28;20229;-78
2022/01/27 02:22:07;;;;;;;42.57;20.87;;;;;;;-1.53;86.73;101009.09;5060300;28;20228;-78
2022/01/27 02:24:35;;;;;;;42.43;21.17;;;;;;;-1.53;86.57;101016.81;5055194;28;20242;-78
2022/01/27 02:27:03;;;;;;;39.92;18.88;;;;;;;-1.53;86.40;101022.81;5056646;28;20205;-78
2022/01/27 02:29:28;;;;;;;36.67;22.05;;;;;;;-1.49;86.37;101015.97;5051667;28;20572;-79
2022/01/27 02:31:56;;;;;;;46.63;26.03;;;;;;;-1.46;86.60;101022.03;5054839;28;20467;-78
2022/01/27 02:34:22;;;;;;;43.42;20.92;;;;;;;-1.45;86.67;101015.16;5060311;28;20225;-78
2022/01/27 02:36:48;;;;;;;32.28;19.70;;;;;;;-1.44;86.41;101004.84;5055232;28;20531;-78
2022/01/27 02:39:15;;;;;;;43.07;21.53;;;;;;;-1.44;86.51;100994.53;5042587;28;20249;-78
2022/01/27 02:41:44;;;;;;;42.58;21.25;;;;;;;-1.44;86.37;100984.22;5057843;28;20454;-78
2022/01/27 02:44:25;;;;;;;38.92;21.40;;;;;;;-1.44;86.22;100998.84;5056473;28;20244;-79
2022/01/27 02:46:51;;;;;;;33.05;19.92;;;;;;;-1.48;86.29;100989.38;5054532;28;20257;-78
2022/01/27 02:49:18;;;;;;;40.72;20.13;;;;;;;-1.45;86.09;100992.81;5059056;28;20234;-79
2022/01/27 02:51:43;;;;;;;33.22;18.13;;;;;;;-1.47;86.24;100993.66;5057664;28;20775;-78
2022/01/27 02:54:09;;;;;;;37.40;20.93;;;;;;;-1.47;86.03;100993.66;5056631;28;20935;-78
2022/01/27 02:56:34;;;;;;;34.93;19.50;;;;;;;-1.46;86.07;100995.38;5058373;28;20213;-78
2022/01/27 02:59:00;;;;;;;43.72;23.08;;;;;;;-1.46;86.26;100991.13;5034640;28;20584;-78
2022/01/27 03:01:25;;;;;;;45.77;26.83;;;;;;;-1.42;85.94;100990.28;5043475;28;20506;-81
2022/01/27 03:03:53;;;;;;;39.90;22.40;;;;;;;-1.41;86.53;100988.53;5040147;28;20479;-78
2022/01/27 03:06:22;;;;;;;36.25;21.48;;;;;;;-1.41;86.28;100984.25;5045090;28;20693;-79
2022/01/27 03:08:48;;;;;;;42.90;21.13;;;;;;;-1.44;86.13;100980.78;5046630;28;20617;-80
2022/01/27 03:11:18;;;;;;;37.50;18.27;;;;;;;-1.43;86.41;100979.94;5042353;28;20711;-79
2022/01/27 03:13:47;;;;;;;39.33;21.45;;;;;;;-1.42;86.45;100981.69;5039384;28;20225;-80
2022/01/27 03:16:12;;;;;;;41.90;19.10;;;;;;;-1.44;86.37;100976.50;5037586;28;20218;-80
2022/01/27 03:18:38;;;;;;;35.93;20.97;;;;;;;-1.45;86.33;100971.34;5040979;28;20387;-80
2022/01/27 03:21:04;;;;;;;40.43;17.73;;;;;;;-1.46;86.04;100972.19;5022627;28;20291;-80
2022/01/27 03:23:33;;;;;;;33.65;19.50;;;;;;;-1.46;86.10;100972.19;5037982;28;20237;-80
2022/01/27 03:25:58;;;;;;;31.90;18.83;;;;;;;-1.46;86.42;100977.34;5040242;28;20197;-78
2022/01/27 03:28:27;;;;;;;31.43;18.77;;;;;;;-1.48;86.11;100982.50;5047980;28;20600;-78
2022/01/27 03:30:56;;;;;;;41.72;20.90;;;;;;;-1.46;86.52;100979.91;5043240;28;20958;-78
2022/01/27 03:33:21;;;;;;;33.33;17.63;;;;;;;-1.44;86.07;100980.78;5047283;28;20229;-78
2022/01/27 03:35:47;;;;;;;25.47;17.50;;;;;;;-1.45;86.11;100985.09;5045023;28;21134;-78
2022/01/27 03:38:13;;;;;;;31.05;17.02;;;;;;;-1.47;86.29;100976.47;5041608;28;20292;-78
2022/01/27 03:40:42;;;;;;;31.40;18.40;;;;;;;-1.49;86.03;100991.06;5037049;28;20256;-78
2022/01/27 03:43:09;;;;;;;38.28;17.02;;;;;;;-1.51;86.08;100997.94;5045812;28;20936;-79
2022/01/27 03:45:35;;;;;;;27.05;15.75;;;;;;;-1.52;86.56;100995.34;5038333;28;20260;-78
2022/01/27 03:48:01;;;;;;;35.90;17.52;;;;;;;-1.52;86.39;100998.78;5038100;28;20222;-78
2022/01/27 03:50:27;;;;;;;32.60;16.67;;;;;;;-1.53;86.46;100996.19;5039665;28;20576;-78
2022/01/27 03:52:55;;;;;;;39.42;19.88;;;;;;;-1.52;86.73;100997.91;5038871;28;20206;-79
2022/01/27 03:55:21;;;;;;;37.83;18.27;;;;;;;-1.52;86.11;101006.50;5041178;28;20228;-79
2022/01/27 03:57:46;;;;;;;34.93;17.50;;;;;;;-1.52;86.22;101010.78;5035596;28;20218;-78
2022/01/27 04:00:12;;;;;;;31.17;15.10;;;;;;;-1.56;85.87;101005.63;5037117;28;20205;-78
2022/01/27 04:02:52;;;;;;;34.25;19.15;;;;;;;-1.59;86.24;101007.31;5038749;28;20251;-78
2022/01/27 04:05:19;;;;;;;27.77;14.65;;;;;;;-1.61;86.26;101016.75;5035814;28;20252;-78
2022/01/27 04:07:44;;;;;;;32.80;15.77;;;;;;;-1.64;86.10;101014.16;5036980;28;20202;-79
2022/01/27 04:10:10;;;;;;;24.17;15.30;;;;;;;-1.63;86.43;101024.44;5038547;28;20285;-79
2022/01/27 04:12:36;;;;;;;39.30;17.43;;;;;;;-1.62;86.52;101030.47;5037591;28;20674;-78
2022/01/27 04:15:01;;;;;;;32.13;17.63;;;;;;;-1.63;86.25;101041.63;5036321;28;20730;-79
2022/01/27 04:17:27;;;;;;;29.23;17.00;;;;;;;-1.66;86.47;101044.19;5037185;28;20255;-78
2022/01/27 04:19:52;;;;;;;29.30;18.33;;;;;;;-1.68;86.55;101041.56;5036052;28;20209;-79
2022/01/27 04:22:17;;;;;;;35.00;16.60;;;;;;;-1.67;86.42;101047.63;5037462;28;20205;-80
2022/01/27 04:24:43;;;;;;;32.90;18.60;;;;;;;-1.71;86.37;101046.69;5037492;28;21244;-80
2022/01/27 04:27:17;;;;;;;30.03;16.27;;;;;;;-1.75;86.42;101039.81;5036305;28;20197;-79
2022/01/27 04:29:42;;;;;;;32.67;18.52;;;;;;;-1.75;86.71;101034.66;5035671;28;20504;-79
2022/01/27 04:32:09;;;;;;;30.33;16.00;;;;;;;-1.74;86.78;101027.78;5034163;28;20197;-80
2022/01/27 04:34:38;;;;;;;32.38;16.98;;;;;;;-1.71;86.57;101031.25;5029692;28;20234;-78
2022/01/27 04:37:05;;;;;;;34.20;18.48;;;;;;;-1.70;86.95;101022.69;5029142;28;20270;-79
2022/01/27 04:39:38;;;;;;;27.73;16.02;;;;;;;-1.69;86.50;101018.38;5028646;28;20209;-80
2022/01/27 04:42:12;;;;;;;28.98;16.08;;;;;;;-1.68;86.49;101015.81;5031550;28;20194;-79
2022/01/27 04:44:53;;;;;;;30.35;18.52;;;;;;;-1.66;86.38;101011.53;5027303;28;20237;-79
2022/01/27 04:47:27;;;;;;;38.75;17.92;;;;;;;-1.64;86.40;101001.25;5036451;28;20264;-78
2022/01/27 04:49:52;;;;;;;30.20;16.73;;;;;;;-1.64;86.09;100993.53;5036378;28;20278;-78
2022/01/27 04:52:18;;;;;;;32.40;17.40;;;;;;;-1.66;86.02;100992.66;5034269;28;20751;-80
2022/01/27 04:57:14;;;;;;;31.75;18.20;;;;;;;-1.69;86.44;100983.19;5038042;28;20209;-78
2022/01/27 04:59:42;;;;;;;40.67;20.67;;;;;;;-1.67;86.26;100980.63;5036132;28;20480;-78
2022/01/27 05:02:17;;;;;;;39.05;22.73;;;;;;;-1.62;86.59;100974.66;5035610;28;20488;-79
2022/01/27 05:04:44;;;;;;;35.05;20.67;;;;;;;-1.65;86.67;100976.34;5037593;28;20821;-78
2022/01/27 05:07:11;;;;;;;34.05;18.77;;;;;;;-1.65;86.70;100979.75;5033062;28;20292;-78
2022/01/27 05:09:37;;;;;;;26.98;16.35;;;;;;;-1.66;86.58;100972.03;5032595;28;20198;-78
2022/01/27 05:12:13;;;;;;;31.58;17.70;;;;;;;-1.67;86.61;100970.34;5033222;28;20213;-78
2022/01/27 05:14:38;;;;;;;31.75;16.75;;;;;;;-1.70;86.58;100968.59;5017154;28;20320;-78
2022/01/27 05:17:04;;;;;;;32.47;18.00;;;;;;;-1.70;86.35;100970.28;5036445;28;20344;-78
2022/01/27 05:19:29;;;;;;;37.73;16.70;;;;;;;-1.69;86.36;100972.88;5036430;28;20197;-78
2022/01/27 05:21:54;;;;;;;28.27;17.97;;;;;;;-1.68;86.48;100966.88;5035486;28;20630;-79
2022/01/27 05:24:20;;;;;;;29.17;14.63;;;;;;;-1.66;86.48;100972.03;5037401;28;20257;-78
2022/01/27 05:26:46;;;;;;;29.77;16.47;;;;;;;-1.67;86.48;100966.03;5039331;28;20209;-78
2022/01/27 05:29:11;;;;;;;37.38;19.35;;;;;;;-1.65;86.44;100966.03;5036389;28;20501;-78
2022/01/27 05:31:37;;;;;;;39.93;22.10;;;;;;;-1.62;86.28;100963.47;5040150;28;20478;-79
2022/01/27 05:34:04;;;;;;;34.67;18.40;;;;;;;-1.63;86.50;100957.47;5039428;28;20224;-79
2022/01/27 05:36:30;;;;;;;37.05;19.55;;;;;;;-1.66;86.42;100954.00;5040214;28;20214;-78
2022/01/27 05:38:56;;;;;;;32.40;17.27;;;;;;;-1.66;86.21;100957.44;5040812;28;20201;-79
2022/01/27 05:41:22;;;;;;;38.23;19.57;;;;;;;-1.66;86.37;100961.75;5040005;28;20468;-78
2022/01/27 05:43:47;;;;;;;33.47;16.83;;;;;;;-1.68;86.39;100958.28;5039493;28;20259;-78
2022/01/27 05:46:13;;;;;;;38.07;18.17;;;;;;;-1.69;86.27;100961.72;5040254;28;20254;-78
2022/01/27 05:48:38;;;;;;;31.83;17.50;;;;;;;-1.71;86.39;100968.56;5040179;28;20234;-79
2022/01/27 05:51:05;;;;;;;30.23;16.37;;;;;;;-1.72;86.39;100966.84;5040509;28;20206;-78
2022/01/27 05:53:32;;;;;;;31.05;16.73;;;;;;;-1.78;86.62;100977.97;5021743;28;20248;-79
2022/01/27 05:55:58;;;;;;;26.58;14.90;;;;;;;-1.81;86.63;100973.66;5040007;28;20228;-80
2022/01/27 05:58:25;;;;;;;29.10;15.55;;;;;;;-1.82;86.53;100976.19;5040866;28;20201;-78
2022/01/27 06:00:51;;;;;;;34.65;21.23;;;;;;;-1.72;86.54;100970.28;5038642;28;20449;-78
2022/01/27 06:03:16;;;;;;;32.13;18.10;;;;;;;-1.76;87.08;100971.09;5038426;28;20734;-80
2022/01/27 06:05:42;;;;;;;29.93;16.00;;;;;;;-1.77;87.00;100971.94;5038579;28;20214;-78
2022/01/27 06:08:07;;;;;;;34.57;17.67;;;;;;;-1.85;86.83;100966.72;5038964;28;20336;-78
2022/01/27 06:10:33;;;;;;;32.07;14.47;;;;;;;-1.90;86.56;100962.38;5039800;28;20625;-79
2022/01/27 06:12:58;;;;;;;35.93;17.10;;;;;;;-1.94;86.62;100956.34;5038169;28;20198;-78
2022/01/27 06:15:26;;;;;;;32.37;18.50;;;;;;;-1.97;86.74;100965.75;5038090;28;20202;-80
2022/01/27 06:17:52;;;;;;;25.48;15.00;;;;;;;-1.97;86.72;100968.31;5037747;28;20201;-78
2022/01/27 06:20:18;;;;;;;30.42;15.23;;;;;;;-1.97;86.79;100973.47;5037712;28;20210;-78
2022/01/27 06:22:44;;;;;;;29.63;13.50;;;;;;;-2.01;86.70;100973.44;5039773;28;20209;-78
2022/01/27 06:25:11;;;;;;;34.27;16.60;;;;;;;-2.01;86.82;100968.28;5038961;28;20249;-78
2022/01/27 06:27:37;;;;;;;25.83;17.67;;;;;;;-1.99;86.45;100970.03;5036973;28;20475;-78
2022/01/27 06:30:05;;;;;;;36.72;20.35;;;;;;;-1.96;86.63;100968.34;5038760;28;21240;-79
2022/01/27 06:32:31;;;;;;;34.13;18.17;;;;;;;-1.99;86.51;100962.31;5037691;28;20272;-81
2022/01/27 06:34:57;;;;;;;28.38;16.60;;;;;;;-2.01;86.43;100952.84;5037736;28;20627;-81
2022/01/27 06:37:22;;;;;;;25.03;15.20;;;;;;;-2.01;86.55;100959.72;5038142;28;20193;-79
2022/01/27 06:39:48;;;;;;;26.60;14.57;;;;;;;-1.99;86.38;100957.16;5038618;28;20664;-79
2022/01/27 06:42:13;;;;;;;24.10;14.77;;;;;;;-2.00;86.34;100951.13;5034848;28;20210;-79
2022/01/27 06:44:39;;;;;;;29.97;15.63;;;;;;;-2.01;86.10;100970.88;5038010;28;20321;-78
2022/01/27 06:47:04;;;;;;;28.87;15.87;;;;;;;-1.99;86.29;100976.06;5037454;28;20214;-79
2022/01/27 06:49:30;;;;;;;29.37;17.63;;;;;;;-1.97;86.14;100976.03;5033560;28;20260;-79
2022/01/27 06:51:55;;;;;;;44.17;30.27;;;;;;;-1.98;86.37;100982.06;5036989;28;20209;-78
2022/01/27 06:54:20;;;;;;;33.40;21.07;;;;;;;-1.98;85.92;100987.22;5035965;28;20222;-79
2022/01/27 06:56:46;;;;;;;36.97;21.53;;;;;;;-1.99;86.06;100986.34;5038563;28;20220;-80
2022/01/27 06:59:12;;;;;;;25.33;16.60;;;;;;;-2.06;86.12;100981.97;5036846;28;20204;-81
2022/01/27 07:01:39;;;;;;;29.45;18.48;;;;;;;-2.05;86.31;100994.03;5038252;28;20481;-80
2022/01/27 07:04:05;;;;;;;24.02;15.82;;;;;;;-2.08;86.58;101004.25;5037576;28;20229;-80
2022/01/27 07:06:32;;;;;;;32.08;15.48;;;;;;;-2.10;87.08;101014.56;5037055;28;20607;-79
2022/01/27 07:08:57;;;;;;;25.98;14.27;;;;;;;-2.11;86.76;101007.66;5036701;28;20221;-78
2022/01/27 07:11:23;;;;;;;29.80;15.07;;;;;;;-2.08;86.74;101020.59;5037239;28;20194;-79
2022/01/27 07:13:48;;;;;;;28.57;14.60;;;;;;;-2.08;86.61;101009.41;5036372;28;20236;-79
2022/01/27 07:16:14;;;;;;;23.37;14.13;;;;;;;-2.13;86.60;101023.94;5037608;28;20213;-78
2022/01/27 07:18:39;;;;;;;19.30;12.67;;;;;;;-2.15;86.33;101029.09;5038747;28;20293;-78
2022/01/27 07:21:05;;;;;;;21.60;13.40;;;;;;;-2.13;86.70;101042.84;5036826;28;20226;-81
2022/01/27 07:23:31;;;;;;;27.53;13.70;;;;;;;-2.10;86.36;101052.31;5037347;28;20237;-81
2022/01/27 07:25:56;;;;;;;26.73;13.63;;;;;;;-2.08;86.49;101056.63;5037134;28;20193;-81
2022/01/27 07:28:22;;;;;;;23.60;15.40;;;;;;;-2.09;86.48;101052.31;5037779;28;20476;-78
2022/01/27 07:30:48;;;;;;;31.73;20.55;;;;;;;-1.97;86.52;101055.88;5036709;28;20477;-78
2022/01/27 07:33:13;;;;;;;26.10;14.93;;;;;;;-2.01;86.45;101066.13;5037257;28;20213;-79
2022/01/27 07:35:39;;;;;;;27.23;14.17;;;;;;;-2.02;86.76;101064.41;5037824;28;20209;-78
2022/01/27 07:38:05;;;;;;;26.33;14.03;;;;;;;-1.97;86.54;101068.75;5035822;28;20394;-78
2022/01/27 07:40:30;;;;;;;21.85;13.32;;;;;;;-1.95;86.60;101061.91;5035519;28;20213;-80
2022/01/27 07:42:56;;;;;;;25.63;14.50;;;;;;;-1.94;86.29;101069.66;5019396;28;20208;-79
2022/01/27 07:45:22;;;;;;;22.23;13.65;;;;;;;-1.90;86.45;101078.28;5018146;28;20233;-79
2022/01/27 07:47:48;;;;;;;32.80;15.83;;;;;;;-1.92;86.11;101067.94;5035195;28;20226;-80
2022/01/27 07:50:13;;;;;;;23.93;14.10;;;;;;;-1.95;85.96;101064.47;5035999;28;20209;-81
2022/01/27 07:52:41;;;;;;;22.10;12.90;;;;;;;-1.96;86.15;101065.34;5036659;28;20217;-79
2022/01/27 07:55:08;;;;;;;25.00;14.55;;;;;;;-1.95;86.16;101069.63;5036565;28;20227;-79
2022/01/27 07:57:33;;;;;;;22.60;14.38;;;;;;;-1.95;85.92;101079.94;5038058;28;20206;-78
2022/01/27 07:59:59;;;;;;;22.03;14.33;;;;;;;-1.98;85.76;101085.06;5035099;28;20202;-80
2022/01/27 08:02:24;;;;;;;29.10;19.73;;;;;;;-1.96;86.03;101076.50;5035706;28;20483;-78
2022/01/27 08:04:49;;;;;;;28.30;17.00;;;;;;;-1.96;86.10;101079.06;5037821;28;20248;-79
2022/01/27 08:07:15;;;;;;;26.67;14.77;;;;;;;-1.95;86.31;101082.50;5037029;28;20206;-79
2022/01/27 08:09:40;;;;;;;25.67;15.23;;;;;;;-1.94;86.01;101074.81;5034952;28;20296;-80
2022/01/27 08:12:06;;;;;;;20.50;11.70;;;;;;;-1.95;86.14;101067.91;5036856;28;20200;-79
2022/01/27 08:14:31;;;;;;;23.67;14.17;;;;;;;-1.94;85.82;101073.94;5035650;28;20234;-80
2022/01/27 08:16:57;;;;;;;26.50;13.57;;;;;;;-1.92;85.57;101067.94;5037872;28;20206;-78
2022/01/27 08:19:22;;;;;;;27.23;14.70;;;;;;;-1.89;85.25;101052.56;5037499;28;20198;-78
2022/01/27 08:21:47;;;;;;;28.23;14.60;;;;;;;-1.88;85.19;101061.13;5022878;28;20228;-80
2022/01/27 08:24:14;;;;;;;33.50;17.57;;;;;;;-1.88;85.13;101054.25;5030010;28;21036;-78
2022/01/27 08:26:44;;;;;;;24.70;14.52;;;;;;;-1.86;85.08;101044.00;5031828;28;20615;-79
2022/01/27 08:29:22;;;;;;;26.25;15.50;;;;;;;-1.83;84.93;101038.88;5029196;28;20517;-81
2022/01/27 08:34:28;;;;;;;24.52;13.63;;;;;;;-1.89;84.83;101041.34;5031149;28;20230;-81
2022/01/27 08:36:54;;;;;;;26.10;15.18;;;;;;;-1.87;84.68;101042.25;5031239;28;20259;-78
2022/01/27 08:39:20;;;;;;;23.40;13.30;;;;;;;-1.94;84.77;101046.47;5030960;28;20606;-79
2022/01/27 08:41:45;;;;;;;24.97;13.93;;;;;;;-1.95;84.64;101057.63;5028290;28;20448;-80
2022/01/27 08:44:10;;;;;;;22.80;13.17;;;;;;;-1.96;84.99;101058.47;5032481;28;20623;-81
2022/01/27 08:46:36;;;;;;;25.77;12.20;;;;;;;-1.97;84.76;101071.31;5030220;28;20480;-79
2022/01/27 08:49:03;;;;;;;19.20;12.07;;;;;;;-1.96;84.76;101070.50;5031397;28;20210;-79
2022/01/27 08:51:30;;;;;;;21.15;13.18;;;;;;;-1.95;85.17;101064.47;5028793;28;20217;-81
2022/01/27 08:53:56;;;;;;;18.23;13.52;;;;;;;-1.94;84.99;101068.81;5028833;28;21233;-82
2022/01/27 08:56:21;;;;;;;31.33;18.05;;;;;;;-1.90;85.05;101065.41;5030690;28;20209;-79
2022/01/27 08:58:47;;;;;;;22.60;11.00;;;;;;;-1.87;84.81;101070.56;5023887;28;20201;-79
2022/01/27 09:01:13;;;;;;;19.17;11.85;;;;;;;-1.83;84.64;101074.94;5030514;28;20559;-81
2022/01/27 09:03:39;;;;;;;22.27;12.95;;;;;;;-1.80;84.54;101077.53;5030421;28;20739;-80
2022/01/27 09:06:04;;;;;;;16.97;12.40;;;;;;;-1.78;84.64;101081.00;5028267;28;20224;-81
2022/01/27 09:08:30;;;;;;;21.77;12.40;;;;;;;-1.77;84.28;101076.69;5031175;28;20304;-81
2022/01/27 09:10:55;;;;;;;25.67;11.80;;;;;;;-1.74;84.49;101080.16;5028753;28;20275;-78
2022/01/27 09:13:21;;;;;;;25.90;11.93;;;;;;;-1.74;84.23;101081.88;5029729;28;20225;-81
2022/01/27 09:15:49;;;;;;;18.53;11.43;;;;;;;-1.71;84.21;101087.06;5030335;28;21035;-78
2022/01/27 09:18:15;;;;;;;18.13;12.07;;;;;;;-1.67;83.95;101078.53;5028993;28;20267;-80
2022/01/27 09:20:43;;;;;;;17.60;11.65;;;;;;;-1.66;84.04;101091.41;5028998;28;20249;-81
2022/01/27 09:23:13;;;;;;;20.52;10.57;;;;;;;-1.67;83.75;101088.84;5029874;28;20248;-81
2022/01/27 09:25:44;;;;;;;18.73;11.20;;;;;;;-1.65;83.79;101081.97;5028106;28;20210;-79
2022/01/27 09:28:12;;;;;;;18.65;11.57;;;;;;;-1.67;83.53;101081.97;5007540;23;20247;-77
2022/01/27 09:30:37;;;;;;;25.95;12.95;;;;;;;-1.71;83.57;101082.75;4938389;28;20822;-77
2022/01/27 09:33:03;;;;;;;23.73;13.00;;;;;;;-1.74;83.82;101082.75;4943643;28;20184;-77
2022/01/27 09:35:30;;;;;;;25.37;11.97;;;;;;;-1.74;83.70;101095.63;4945863;28;20731;-77
2022/01/27 09:37:56;;;;;;;22.52;11.43;;;;;;;-1.71;83.81;101093.06;4956353;28;20239;-77
2022/01/27 09:40:22;;;;;;;23.77;13.00;;;;;;;-1.64;83.42;101088.84;4969212;28;20276;-77
2022/01/27 09:42:51;;;;;;;22.08;11.95;;;;;;;-1.58;83.28;101088.91;4968441;28;20215;-77
2022/01/27 09:45:17;;;;;;;24.00;12.85;;;;;;;-1.56;83.17;101087.22;4962836;28;20286;-78
2022/01/27 09:47:47;;;;;;;26.83;14.05;;;;;;;-1.52;83.05;101095.84;4970926;28;21065;-78
2022/01/27 09:52:41;;;;;;;21.38;10.93;;;;;;;-1.52;82.74;101094.13;4971428;28;20213;-78
2022/01/27 09:55:07;;;;;;;28.17;12.90;;;;;;;-1.56;82.96;101092.38;4972997;28;20208;-78
2022/01/27 09:57:32;;;;;;;23.02;12.57;;;;;;;-1.62;83.09;101100.91;4972017;28;20223;-79
2022/01/27 09:59:58;;;;;;;25.07;15.77;;;;;;;-1.61;83.24;101099.19;4969409;28;20495;-78
2022/01/27 10:02:26;;;;;;;27.83;17.77;;;;;;;-1.53;83.51;101102.69;4970667;28;21147;-78
2022/01/27 10:05:01;;;;;;;28.95;17.08;;;;;;;-1.56;83.41;101093.22;4971770;28;20215;-78
2022/01/27 10:07:31;;;;;;;19.67;12.98;;;;;;;-1.61;83.26;101081.16;4952209;28;20239;-78
2022/01/27 10:09:59;;;;;;;33.92;15.57;;;;;;;-1.62;83.20;101079.41;4971184;28;20204;-78
2022/01/27 10:12:36;;;;;;;19.90;12.88;;;;;;;-1.64;83.14;101088.84;4973223;28;20401;-78
2022/01/27 10:15:12;;;;;;;22.63;12.25;;;;;;;-1.60;82.92;101083.72;4975051;28;20315;-78
2022/01/27 10:17:58;;;;;;;21.92;12.70;;;;;;;-1.62;82.58;101080.28;4971702;28;20220;-77
2022/01/27 10:20:23;;;;;;;20.35;14.23;;;;;;;-1.57;82.70;101081.22;4972195;28;20242;-78
2022/01/27 10:23:13;;;;;;;20.37;10.67;;;;;;;-1.49;82.41;101070.94;4971843;28;20219;-78
2022/01/27 10:25:46;;;;;;;25.98;13.00;;;;;;;-1.44;82.43;101073.56;4972902;28;20250;-78
2022/01/27 10:31:01;;;;;;;27.35;16.60;;;;;;;-1.31;82.28;101072.84;4974934;28;20476;-77
2022/01/27 10:33:27;;;;;;;26.90;15.20;;;;;;;-1.32;82.08;101073.69;4975744;28;20196;-79
2022/01/27 10:35:52;;;;;;;23.00;13.30;;;;;;;-1.29;82.13;101062.53;4979570;28;20215;-79
2022/01/27 10:38:18;;;;;;;24.77;14.20;;;;;;;-1.26;81.91;101055.69;4973027;28;20228;-78
2022/01/27 10:40:48;;;;;;;23.90;13.90;;;;;;;-1.25;81.74;101054.81;4968201;28;20212;-77
2022/01/27 10:43:17;;;;;;;29.38;14.13;;;;;;;-1.29;81.79;101047.09;4968862;28;20477;-78
2022/01/27 10:46:10;;;;;;;25.77;14.35;;;;;;;-1.29;81.55;101060.81;4965826;28;20199;-78
2022/01/27 10:51:27;;;;;;;19.73;13.18;;;;;;;-1.38;81.41;101076.19;4970557;28;20216;-78
2022/01/27 10:54:05;;;;;;;22.35;14.13;;;;;;;-1.39;81.35;101074.47;4970922;28;20586;-78
2022/01/27 10:56:36;;;;;;;21.35;12.13;;;;;;;-1.35;81.42;101068.47;4969243;28;20215;-78
2022/01/27 10:59:12;;;;;;;27.00;15.20;;;;;;;-1.26;81.44;101067.72;4956268;28;20239;-78
2022/01/27 11:01:42;;;;;;;28.30;14.95;;;;;;;-1.25;81.37;101070.28;4970186;28;20540;-78
2022/01/27 11:04:10;;;;;;;25.80;14.63;;;;;;;-1.23;81.59;101070.31;4969744;28;20222;-79
2022/01/27 11:06:37;;;;;;;26.90;15.07;;;;;;;-1.17;81.37;101066.06;4968719;28;20250;-78
2022/01/27 11:09:09;;;;;;;31.10;15.30;;;;;;;-1.14;80.88;101070.38;4968013;28;20228;-79
2022/01/27 11:11:39;;;;;;;20.35;13.38;;;;;;;-1.12;80.60;101074.69;4971443;28;20211;-78
2022/01/27 11:14:04;;;;;;;27.60;12.50;;;;;;;-1.14;80.55;101065.22;4969375;28;20208;-79
2022/01/27 11:16:35;;;;;;;19.33;12.10;;;;;;;-1.18;80.75;101059.19;5027671;28;20258;-78
2022/01/27 11:21:45;;;;;;;32.45;17.80;;;;;;;-1.16;80.57;101067.81;4968593;28;20195;-78
2022/01/27 11:24:24;;;;;;;23.70;14.10;;;;;;;-1.12;80.90;101066.09;4964917;28;20285;-78
2022/01/27 11:26:54;;;;;;;21.92;11.80;;;;;;;-1.10;80.55;101058.41;4969431;28;20203;-78
2022/01/27 11:29:23;;;;;;;19.70;12.32;;;;;;;-1.06;80.24;101057.56;4968142;28;20239;-78
2022/01/27 11:32:11;;;;;;;33.53;21.17;;;;;;;-1.10;80.49;101055.81;4966483;28;20252;-78
2022/01/27 11:35:15;;;;;;;26.60;15.07;;;;;;;-1.05;80.42;101054.09;4959676;28;20691;-78
2022/01/27 11:37:40;;;;;;;24.65;14.88;;;;;;;-0.98;80.30;101038.69;4975902;28;20405;-78
2022/01/27 11:40:11;;;;;;;24.30;14.27;;;;;;;-0.83;80.10;101045.69;4974652;28;20212;-78
2022/01/27 11:42:40;;;;;;;24.48;14.65;;;;;;;-0.74;79.87;101050.88;4982684;28;20223;-78
2022/01/27 11:45:20;;;;;;;22.60;12.70;;;;;;;-0.70;79.55;101050.06;4980442;28;20369;-78
2022/01/27 11:47:51;;;;;;;24.27;14.05;;;;;;;-0.69;79.31;101044.03;4968335;28;20289;-78
2022/01/27 11:53:40;;;;;;;21.17;12.38;;;;;;;-0.56;78.58;101029.47;4975406;28;20212;-78
2022/01/27 11:56:31;;;;;;;25.48;13.38;;;;;;;-0.45;78.57;101030.38;4977302;28;20212;-78
2022/01/27 11:58:58;;;;;;;25.08;14.38;;;;;;;-0.31;78.26;101022.69;4970030;28;20627;-79
2022/01/27 12:01:26;;;;;;;23.48;14.18;;;;;;;-0.16;78.23;101024.47;4970753;28;21172;-78
2022/01/27 12:04:05;;;;;;;27.88;15.63;;;;;;;-0.09;77.68;101015.88;5023521;28;20215;-78
2022/01/27 12:06:32;;;;;;;25.25;14.10;;;;;;;-0.02;77.29;101011.59;5008418;28;20238;-78
2022/01/27 12:09:26;;;;;;;22.90;13.60;;;;;;;-0.09;77.16;101004.69;5009692;28;20238;-78
2022/01/27 12:11:59;;;;;;;21.60;12.90;;;;;;;-0.09;76.91;100999.50;5011706;28;20231;-78
2022/01/27 12:14:35;;;;;;;20.98;12.60;;;;;;;-0.05;77.10;101006.44;5011363;28;20304;-78